Time;durP1;ratioP1;P1;durP2;ratioP2;P2;SDS_P1;SDS_P2;PMS_P1;PMS_P2;Temp;Humidity;BMP_temperature;BMP_pressure;BME280_temperature;BME280_humidity;BME280_pressure;Samples;Min_cycle;Max_cycle;Signal;HPM_P1;HPM_P2
2022/11/04 00:01:04;;;;;;;1999.90;999.90;;;;;;;12.37;100.00;97322.38;5102246;28;20028;-74
2022/11/04 00:03:29;;;;;;;1999.90;999.90;;;;;;;12.40;100.00;97332.72;5100724;28;20401;-75
2022/11/04 00:05:55;;;;;;;1999.90;999.90;;;;;;;12.39;100.00;97314.63;5095687;28;20032;-74
2022/11/04 00:08:23;;;;;;;1999.90;999.90;;;;;;;12.48;100.00;97320.91;5100685;28;20020;-74
2022/11/04 00:13:43;;;;;;;1999.90;999.90;;;;;;;12.39;100.00;97320.13;5105749;28;20224;-74
2022/11/04 00:18:53;;;;;;;1999.90;999.90;;;;;;;12.24;100.00;97309.63;5111338;28;20037;-74
2022/11/04 00:29:32;;;;;;;1999.90;999.90;;;;;;;12.42;100.00;97278.34;5111480;28;20120;-74
2022/11/04 00:34:41;;;;;;;1999.90;999.90;;;;;;;12.40;100.00;97269.63;5112400;28;20023;-74
2022/11/04 00:37:06;;;;;;;1999.90;999.90;;;;;;;12.35;100.00;97270.59;5111524;28;20031;-74
2022/11/04 00:39:31;;;;;;;1999.90;999.90;;;;;;;12.35;100.00;97251.38;5111930;28;20103;-77
2022/11/04 00:41:57;;;;;;;1999.90;999.90;;;;;;;12.31;100.00;97268.81;5108679;28;20114;-74
2022/11/04 00:44:22;;;;;;;1999.90;999.90;;;;;;;12.22;100.00;97265.25;5096801;28;20027;-77
2022/11/04 00:46:48;;;;;;;1999.90;999.90;;;;;;;12.20;100.00;97257.38;5099734;28;20027;-75
2022/11/04 00:49:13;;;;;;;1999.90;999.90;;;;;;;12.22;100.00;97248.81;5110064;28;20109;-73
2022/11/04 00:51:39;;;;;;;1999.90;999.90;;;;;;;12.09;100.00;97249.81;5105495;28;20533;-74
2022/11/04 00:54:04;;;;;;;1999.90;999.90;;;;;;;12.13;100.00;97239.78;5107933;28;20070;-75
2022/11/04 00:56:30;;;;;;;1999.90;999.90;;;;;;;12.12;100.00;97238.97;5105811;28;20039;-74
2022/11/04 00:58:58;;;;;;;1999.90;999.90;;;;;;;12.17;100.00;97243.50;5101874;28;20436;-74
2022/11/04 01:01:23;;;;;;;1999.90;999.90;;;;;;;12.21;100.00;97247.22;5101792;28;20020;-74
2022/11/04 01:03:51;;;;;;;1999.90;999.90;;;;;;;12.26;100.00;97247.84;5099289;28;20546;-74
2022/11/04 01:06:17;;;;;;;1999.90;999.90;;;;;;;12.19;100.00;97233.81;5100086;28;20028;-75
2022/11/04 01:08:43;;;;;;;1999.90;999.90;;;;;;;12.17;100.00;97229.78;5100194;28;20018;-74
2022/11/04 01:11:10;;;;;;;1999.90;999.90;;;;;;;12.22;100.00;97232.34;5099038;28;20024;-75
2022/11/04 01:13:36;;;;;;;1999.90;999.90;;;;;;;12.28;100.00;97225.56;5109555;28;20031;-75
2022/11/04 01:16:04;;;;;;;1999.90;999.90;;;;;;;12.28;100.00;97225.56;5111874;28;20391;-76
2022/11/04 01:18:29;;;;;;;1999.90;999.90;;;;;;;12.31;100.00;97220.25;5110372;28;20024;-74
2022/11/04 01:21:02;;;;;;;1999.90;999.90;;;;;;;12.18;100.00;97214.97;5116798;28;20038;-75
2022/11/04 01:23:28;;;;;;;1999.90;999.90;;;;;;;12.26;100.00;97211.38;5117715;28;20054;-75
2022/11/04 01:25:53;;;;;;;1999.90;999.90;;;;;;;12.32;100.00;97213.66;5117600;28;20032;-76
2022/11/04 01:28:18;;;;;;;1999.90;999.90;;;;;;;12.31;100.00;97208.47;5112004;28;20486;-75
2022/11/04 01:30:44;;;;;;;1999.90;999.90;;;;;;;12.26;100.00;97200.44;5111739;28;20392;-76
2022/11/04 01:33:09;;;;;;;1999.90;999.90;;;;;;;12.17;100.00;97203.19;5111955;28;20031;-76
2022/11/04 01:35:36;;;;;;;1999.90;999.90;;;;;;;12.30;100.00;97193.16;5109374;28;20023;-75
2022/11/04 01:38:01;;;;;;;1999.90;999.90;;;;;;;12.33;100.00;97189.78;5101519;28;20107;-75
2022/11/04 01:40:26;;;;;;;1999.90;999.90;;;;;;;12.37;100.00;97177.03;5105151;28;20114;-75
2022/11/04 01:42:52;;;;;;;1999.90;999.90;;;;;;;12.35;100.00;97185.56;5101503;28;20380;-74
2022/11/04 01:45:19;;;;;;;1999.90;999.90;;;;;;;12.39;100.00;97184.91;5102087;28;20574;-74
2022/11/04 01:48:04;;;;;;;1999.90;999.90;;;;;;;12.39;100.00;97188.47;5100558;28;20035;-75
2022/11/04 01:50:33;;;;;;;1999.90;999.90;;;;;;;12.38;100.00;97180.56;5102766;28;20480;-75
2022/11/04 01:53:09;;;;;;;1999.90;999.90;;;;;;;12.38;100.00;97175.06;5098632;28;20265;-75
2022/11/04 01:55:44;;;;;;;1999.90;999.90;;;;;;;12.44;100.00;97162.78;5098742;28;20028;-75
2022/11/04 01:58:16;;;;;;;1999.90;999.90;;;;;;;12.41;100.00;97163.44;5099867;28;20412;-74
2022/11/04 02:00:42;;;;;;;1999.90;999.90;;;;;;;12.41;100.00;97150.53;5100817;28;20399;-74
2022/11/04 02:03:19;;;;;;;1999.90;999.90;;;;;;;12.47;100.00;97146.50;5103408;28;20034;-73
2022/11/04 02:05:45;;;;;;;1999.90;999.90;;;;;;;12.45;100.00;97142.47;5099468;28;20092;-73
2022/11/04 02:08:13;;;;;;;1999.90;999.90;;;;;;;12.44;100.00;97136.16;5102703;28;20020;-74
2022/11/04 02:10:40;;;;;;;1999.90;999.90;;;;;;;12.29;100.00;97129.28;5101127;28;20030;-73
2022/11/04 02:13:06;;;;;;;1999.90;999.90;;;;;;;12.37;100.00;97119.44;5099696;28;20072;-73
2022/11/04 02:15:51;;;;;;;1999.90;999.90;;;;;;;12.24;100.00;97121.25;5098291;28;20465;-73
2022/11/04 02:18:22;;;;;;;1999.90;999.90;;;;;;;12.23;100.00;97116.06;5090662;28;20040;-73
2022/11/04 02:21:02;;;;;;;1999.90;999.90;;;;;;;12.12;100.00;97103.84;5108965;28;20456;-75
2022/11/04 02:24:05;;;;;;;1999.90;999.90;;;;;;;12.15;100.00;97095.75;5111146;28;20101;-74
2022/11/04 02:26:48;;;;;;;1999.90;999.90;;;;;;;12.20;100.00;97092.88;5111043;28;20031;-75
2022/11/04 02:29:34;;;;;;;1999.90;999.90;;;;;;;12.07;100.00;97084.81;5110781;28;20028;-74
2022/11/04 02:32:23;;;;;;;1999.90;999.90;;;;;;;12.15;100.00;97089.50;5111050;28;20023;-74
2022/11/04 02:34:58;;;;;;;1999.90;999.90;;;;;;;12.22;100.00;97078.81;5073147;28;20039;-74
2022/11/04 02:37:32;;;;;;;1999.90;999.90;;;;;;;12.09;100.00;97080.63;5110534;28;20023;-74
2022/11/04 02:40:19;;;;;;;1999.90;999.90;;;;;;;12.06;100.00;97073.06;5110938;28;20027;-74
2022/11/04 02:43:00;;;;;;;1999.90;999.90;;;;;;;12.04;100.00;97063.56;5110791;28;20101;-74
2022/11/04 02:45:35;;;;;;;1999.90;999.90;;;;;;;12.00;100.00;97054.38;5110972;28;20028;-74
2022/11/04 02:48:09;;;;;;;1999.90;999.90;;;;;;;12.11;100.00;97044.66;5110600;28;20035;-74
2022/11/04 02:50:42;;;;;;;1999.90;999.90;;;;;;;12.19;100.00;97036.41;5110299;28;20031;-74
2022/11/04 02:53:21;;;;;;;1999.90;999.90;;;;;;;12.19;100.00;97035.59;5110953;28;20028;-74
2022/11/04 02:55:53;;;;;;;1999.90;999.90;;;;;;;12.17;100.00;97037.88;5119943;28;20044;-74
2022/11/04 02:58:26;;;;;;;1999.90;999.90;;;;;;;12.24;100.00;97039.00;5119295;28;20023;-74
2022/11/04 03:00:53;;;;;;;1999.90;999.90;;;;;;;12.23;100.00;97036.56;5114243;28;20031;-73
2022/11/04 03:03:24;;;;;;;1999.90;999.90;;;;;;;12.29;100.00;97033.31;5114211;28;20032;-74
2022/11/04 03:05:52;;;;;;;1999.90;999.90;;;;;;;12.31;100.00;97027.47;5114854;28;20121;-73
2022/11/04 03:08:26;;;;;;;1999.90;999.90;;;;;;;12.33;100.00;97030.72;5114600;28;20110;-73
2022/11/04 03:11:01;;;;;;;1999.90;999.90;;;;;;;12.23;100.00;97031.09;5114059;28;20035;-74
2022/11/04 03:13:41;;;;;;;1999.90;999.90;;;;;;;12.27;100.00;97018.31;5114403;28;20438;-74
2022/11/04 03:16:11;;;;;;;1999.90;999.90;;;;;;;12.28;100.00;97025.41;5114171;28;20042;-73
2022/11/04 03:18:59;;;;;;;1999.90;999.90;;;;;;;12.29;100.00;97022.34;5114158;28;20019;-74
2022/11/04 03:21:27;;;;;;;1999.90;999.90;;;;;;;12.35;100.00;97012.81;5114090;28;20032;-75
2022/11/04 03:23:53;;;;;;;1999.90;999.90;;;;;;;12.34;100.00;97026.84;5114043;28;20034;-74
2022/11/04 03:26:32;;;;;;;1999.90;999.90;;;;;;;12.35;100.00;97028.44;5114114;28;20035;-73
2022/11/04 03:29:27;;;;;;;1999.90;999.90;;;;;;;12.41;100.00;97021.63;5113873;28;20028;-74
2022/11/04 03:32:14;;;;;;;1999.90;999.90;;;;;;;12.36;100.00;97021.84;5108999;28;20058;-73
2022/11/04 03:34:39;;;;;;;1999.90;999.90;;;;;;;12.23;100.00;97033.81;5114279;28;20028;-74
2022/11/04 03:37:05;;;;;;;1999.90;999.90;;;;;;;12.30;100.00;97032.19;5113952;28;20034;-74
2022/11/04 03:39:31;;;;;;;1999.90;999.90;;;;;;;12.35;100.00;97039.41;5113779;28;20062;-74
2022/11/04 03:41:59;;;;;;;1999.90;999.90;;;;;;;12.35;100.00;97039.41;5113760;28;20031;-74
2022/11/04 03:44:25;;;;;;;1999.90;999.90;;;;;;;12.42;100.00;97038.91;5113740;28;20020;-74
2022/11/04 03:46:52;;;;;;;1999.90;999.90;;;;;;;12.49;100.00;97039.19;5113614;28;20032;-74
2022/11/04 03:49:20;;;;;;;1999.90;999.90;;;;;;;12.43;100.00;97035.03;5113746;28;20428;-73
2022/11/04 03:51:45;;;;;;;1999.90;999.90;;;;;;;12.51;100.00;97031.44;5113769;28;20035;-74
2022/11/04 03:54:11;;;;;;;1999.90;999.90;;;;;;;12.47;100.00;97014.81;5113691;28;20027;-74
2022/11/04 03:56:45;;;;;;;1999.90;999.90;;;;;;;12.44;100.00;97034.69;5113538;28;20035;-73
2022/11/04 03:59:35;;;;;;;1999.90;999.90;;;;;;;12.42;100.00;97031.47;5113435;28;20616;-74
2022/11/04 04:02:19;;;;;;;1999.90;999.90;;;;;;;12.44;100.00;97026.47;5095187;28;20032;-74
2022/11/04 04:05:01;;;;;;;1999.90;999.90;;;;;;;12.47;100.00;97014.81;5112846;28;20074;-74
2022/11/04 04:07:42;;;;;;;1999.90;999.90;;;;;;;12.41;100.00;97026.31;5113244;28;20028;-74
2022/11/04 04:10:51;;;;;;;1999.90;999.90;;;;;;;12.36;100.00;97030.06;5113034;28;20047;-74
2022/11/04 04:14:05;;;;;;;1999.90;999.90;;;;;;;12.42;100.00;97006.81;5113025;28;20035;-73
2022/11/04 04:16:58;;;;;;;1999.90;999.90;;;;;;;12.40;100.00;97002.78;5030170;28;20033;-74
2022/11/04 04:19:23;;;;;;;1999.90;999.90;;;;;;;12.41;100.00;97009.84;5030165;28;20049;-74
2022/11/04 04:22:02;;;;;;;1999.90;999.90;;;;;;;12.39;100.00;97001.97;5089573;28;20483;-74
2022/11/04 04:27:32;;;;;;;1999.90;999.90;;;;;;;12.36;100.00;96999.91;5113096;28;20061;-74
2022/11/04 04:30:13;;;;;;;1999.90;999.90;;;;;;;12.34;100.00;96991.22;5112637;28;20499;-74
2022/11/04 04:32:50;;;;;;;1999.90;999.90;;;;;;;12.40;100.00;96986.34;5112997;28;20024;-74
2022/11/04 04:46:35;;;;;;;1999.90;999.90;;;;;;;12.43;100.00;96966.47;5114009;28;20034;-75
2022/11/04 04:49:07;;;;;;;1999.90;999.90;;;;;;;12.47;100.00;96965.47;5114367;28;20070;-74
2022/11/04 04:51:37;;;;;;;1999.90;999.90;;;;;;;12.43;100.00;96964.53;5112285;28;20392;-73
2022/11/04 04:54:02;;;;;;;1999.90;999.90;;;;;;;12.33;100.00;96962.97;5112343;28;20107;-73
2022/11/04 04:56:28;;;;;;;1999.90;999.90;;;;;;;12.33;100.00;96962.16;5111857;28;20034;-73
2022/11/04 04:58:53;;;;;;;1999.90;999.90;;;;;;;12.31;100.00;96945.22;5111627;28;20067;-73
2022/11/04 05:01:18;;;;;;;1999.90;999.90;;;;;;;12.23;100.00;96938.66;5092802;28;20055;-73
2022/11/04 05:03:44;;;;;;;1999.90;999.90;;;;;;;12.19;100.00;96932.22;5111377;28;20134;-72
2022/11/04 05:06:09;;;;;;;1999.90;999.90;;;;;;;12.23;100.00;96921.41;5120073;28;20023;-74
2022/11/04 05:08:34;;;;;;;1999.90;999.90;;;;;;;12.23;100.00;96907.69;5115099;28;20031;-74
2022/11/04 05:11:00;;;;;;;1999.90;999.90;;;;;;;12.23;100.00;96916.72;5111948;28;20133;-73
2022/11/04 05:13:28;;;;;;;1999.90;999.90;;;;;;;12.20;100.00;96911.09;5111855;28;20051;-73
2022/11/04 05:16:02;;;;;;;1999.90;999.90;;;;;;;12.21;100.00;96915.47;5110847;28;20039;-73
2022/11/04 05:18:27;;;;;;;1999.90;999.90;;;;;;;12.15;100.00;96909.34;5111842;28;20065;-73
2022/11/04 05:20:52;;;;;;;1999.90;999.90;;;;;;;12.17;100.00;96906.28;5111656;28;20063;-75
2022/11/04 05:23:18;;;;;;;1999.90;999.90;;;;;;;12.16;100.00;96904.66;5111826;28;20023;-74
2022/11/04 05:25:43;;;;;;;1999.90;999.90;;;;;;;12.16;100.00;96890.97;5112093;28;20077;-73
2022/11/04 05:28:09;;;;;;;1999.90;999.90;;;;;;;12.15;100.00;96903.84;5111652;28;20019;-74
2022/11/04 05:30:34;;;;;;;1999.90;999.90;;;;;;;12.04;100.00;96908.13;5111520;28;20119;-72
2022/11/04 05:33:00;;;;;;;1999.90;999.90;;;;;;;12.12;100.00;96874.38;5111411;28;20020;-73
2022/11/04 05:35:25;;;;;;;1999.90;999.90;;;;;;;12.16;100.00;96890.97;5111752;28;20082;-74
2022/11/04 05:37:51;;;;;;;1999.90;999.90;;;;;;;12.13;100.00;96895.16;5111574;28;20035;-73
2022/11/04 05:40:16;;;;;;;1999.90;999.90;;;;;;;12.18;100.00;96881.28;5111525;28;20376;-74
2022/11/04 05:42:42;;;;;;;1999.90;999.90;;;;;;;12.09;100.00;96874.25;5111603;28;20084;-73
2022/11/04 05:45:08;;;;;;;1999.90;999.90;;;;;;;12.17;100.00;96871.47;5111736;28;20426;-73
2022/11/04 05:47:33;;;;;;;1999.90;999.90;;;;;;;12.15;100.00;96868.22;5112627;28;20016;-74
2022/11/04 05:49:58;;;;;;;1999.90;999.90;;;;;;;12.10;100.00;96860.19;5113327;28;20486;-75
2022/11/04 05:52:24;;;;;;;1999.90;999.90;;;;;;;12.10;100.00;96856.66;5119177;28;20049;-73
2022/11/04 05:54:49;;;;;;;1999.90;999.90;;;;;;;12.13;100.00;96856.00;5123516;28;20020;-73
2022/11/04 05:57:14;;;;;;;1999.90;999.90;;;;;;;12.11;100.00;96861.00;5124633;28;20027;-74
2022/11/04 05:59:40;;;;;;;1999.90;999.90;;;;;;;12.10;100.00;96856.66;5112606;28;20107;-74
2022/11/04 06:02:06;;;;;;;1999.90;999.90;;;;;;;12.07;100.00;96843.63;5092937;28;20404;-74
2022/11/04 06:04:32;;;;;;;1999.90;999.90;;;;;;;12.05;100.00;96856.84;5110910;28;20047;-74
2022/11/04 06:06:58;;;;;;;1999.90;999.90;;;;;;;12.08;100.00;96850.72;5111057;28;20058;-73
2022/11/04 06:09:37;;;;;;;1999.90;999.90;;;;;;;12.11;100.00;96852.78;5111050;28;20063;-74
2022/11/04 06:12:13;;;;;;;1999.90;999.90;;;;;;;12.11;100.00;96839.09;5110669;28;20114;-75
2022/11/04 06:14:39;;;;;;;1999.90;999.90;;;;;;;12.13;100.00;96836.81;5111095;28;20441;-74
2022/11/04 06:17:04;;;;;;;1999.90;999.90;;;;;;;12.04;100.00;96819.63;5110842;28;20027;-74
2022/11/04 06:19:30;;;;;;;1999.90;999.90;;;;;;;12.05;100.00;96837.66;5110981;28;20118;-74
2022/11/04 06:21:55;;;;;;;1999.90;999.90;;;;;;;12.05;100.00;96832.19;5110968;28;20023;-74
2022/11/04 06:24:21;;;;;;;1999.90;999.90;;;;;;;12.10;100.00;96830.06;5111219;28;20389;-73
2022/11/04 06:26:46;;;;;;;1999.90;999.90;;;;;;;12.11;100.00;96814.41;5111496;28;20214;-74
2022/11/04 06:29:11;;;;;;;1999.90;999.90;;;;;;;12.16;100.00;96833.41;5115240;28;20028;-74
2022/11/04 06:31:37;;;;;;;1999.90;999.90;;;;;;;12.14;100.00;96838.41;5115137;28;20039;-74
2022/11/04 06:34:03;;;;;;;1999.90;999.90;;;;;;;12.17;100.00;96841.28;5115200;28;20024;-74
2022/11/04 06:36:28;;;;;;;1999.90;999.90;;;;;;;12.15;100.00;96832.59;5115193;28;20106;-73
2022/11/04 06:38:54;;;;;;;1999.90;999.90;;;;;;;12.15;100.00;96826.31;5115175;28;20054;-73
2022/11/04 06:41:19;;;;;;;1999.90;999.90;;;;;;;12.09;100.00;96822.19;5114841;28;20492;-73
2022/11/04 06:43:44;;;;;;;1999.90;999.90;;;;;;;12.16;100.00;96822.44;5115006;28;20473;-73
2022/11/04 06:46:34;;;;;;;1999.90;999.90;;;;;;;12.14;100.00;96831.00;5114890;28;20031;-74
2022/11/04 06:49:00;;;;;;;1999.90;999.90;;;;;;;12.14;100.00;96830.19;5104557;28;20047;-73
2022/11/04 06:51:26;;;;;;;1999.90;999.90;;;;;;;12.14;100.00;96825.53;5114556;28;20507;-73
2022/11/04 06:53:51;;;;;;;1999.90;999.90;;;;;;;12.13;100.00;96834.88;5114689;28;20797;-73
2022/11/04 06:56:16;;;;;;;1999.90;999.90;;;;;;;12.14;100.00;96821.97;5115373;28;20457;-74
2022/11/04 06:58:42;;;;;;;1999.90;999.90;;;;;;;12.14;100.00;96819.22;5114760;28;20028;-76
2022/11/04 07:01:07;;;;;;;1999.90;999.90;;;;;;;12.14;100.00;96805.53;5114615;28;20028;-74
2022/11/04 07:03:33;;;;;;;1999.90;999.90;;;;;;;12.14;100.00;96805.53;5115125;28;20044;-73
2022/11/04 07:05:58;;;;;;;1999.90;999.90;;;;;;;12.15;100.00;96799.69;5114515;28;20027;-74
2022/11/04 07:08:23;;;;;;;1999.90;999.90;;;;;;;12.18;100.00;96803.72;5114336;28;20434;-74
2022/11/04 07:10:49;;;;;;;1999.90;999.90;;;;;;;12.15;100.00;96798.91;5114625;28;20031;-74
2022/11/04 07:13:16;;;;;;;1999.90;999.90;;;;;;;12.16;100.00;96805.97;5116472;28;20081;-76
2022/11/04 07:15:41;;;;;;;1999.90;999.90;;;;;;;12.17;100.00;96808.41;5121573;28;20552;-75
2022/11/04 07:18:07;;;;;;;1999.90;999.90;;;;;;;12.17;100.00;96791.16;5099233;28;20043;-73
2022/11/04 07:20:34;;;;;;;1999.90;999.90;;;;;;;12.16;100.00;96789.53;5114908;28;20111;-74
2022/11/04 07:23:00;;;;;;;1999.90;999.90;;;;;;;12.19;100.00;96791.59;5114263;28;20486;-74
2022/11/04 07:25:25;;;;;;;1999.90;999.90;;;;;;;12.30;100.00;96796.38;5114175;28;20118;-74
2022/11/04 07:27:50;;;;;;;1999.90;999.90;;;;;;;12.31;100.00;96792.47;5114478;28;20392;-74
2022/11/04 07:30:17;;;;;;;1999.90;999.90;;;;;;;12.32;100.00;96796.03;5114052;28;20112;-75
2022/11/04 07:32:43;;;;;;;1999.90;999.90;;;;;;;12.34;100.00;96778.09;5114321;28;20027;-73
2022/11/04 07:35:08;;;;;;;1999.90;999.90;;;;;;;12.41;100.00;96785.78;5113764;28;20012;-74
2022/11/04 07:37:33;;;;;;;1999.90;999.90;;;;;;;12.37;100.00;96779.38;5114219;28;20056;-75
2022/11/04 07:39:59;;;;;;;1999.90;999.90;;;;;;;12.30;100.00;96776.38;5113015;28;20020;-74
2022/11/04 07:42:24;;;;;;;1999.90;999.90;;;;;;;12.23;100.00;96768.69;5095394;28;20341;-75
2022/11/04 07:44:49;;;;;;;1999.90;999.90;;;;;;;12.21;100.00;96754.50;5114018;28;20388;-75
2022/11/04 07:47:15;;;;;;;1999.90;999.90;;;;;;;12.25;100.00;96760.09;5113797;28;20039;-75
2022/11/04 07:49:40;;;;;;;1999.90;999.90;;;;;;;12.20;100.00;96752.09;5113704;28;20035;-74
2022/11/04 07:52:05;;;;;;;1999.90;999.90;;;;;;;12.21;100.00;96743.56;5113659;28;20047;-73
2022/11/04 07:54:31;;;;;;;1999.90;999.90;;;;;;;12.17;100.00;96739.88;5113641;28;20024;-74
2022/11/04 07:56:57;;;;;;;1999.90;999.90;;;;;;;12.25;100.00;96741.72;5114110;28;20142;-73
2022/11/04 07:59:22;;;;;;;1999.90;999.90;;;;;;;12.28;100.00;96740.25;5113524;28;20408;-74
2022/11/04 08:01:47;;;;;;;1999.90;999.90;;;;;;;12.39;100.00;96732.41;5113718;28;20024;-74
2022/11/04 08:04:12;;;;;;;1999.90;999.90;;;;;;;12.36;100.00;96728.41;5113307;28;20043;-73
2022/11/04 08:06:38;;;;;;;1999.90;999.90;;;;;;;12.35;100.00;96721.31;5113260;28;20120;-74
2022/11/04 08:09:03;;;;;;;1999.90;999.90;;;;;;;12.37;100.00;96721.78;5113376;28;20024;-74
2022/11/04 08:11:29;;;;;;;1999.90;999.90;;;;;;;12.38;100.00;96719.84;5113538;28;20031;-75
2022/11/04 08:13:55;;;;;;;1999.90;999.90;;;;;;;12.37;100.00;96715.50;5113677;28;20016;-74
2022/11/04 08:16:24;;;;;;;1999.90;999.90;;;;;;;12.33;100.00;96718.91;5113144;28;20495;-74
2022/11/04 08:18:51;;;;;;;1999.90;999.90;;;;;;;12.42;100.00;96716.09;5113166;28;20027;-74
2022/11/04 08:21:17;;;;;;;1999.90;999.90;;;;;;;12.44;100.00;96733.00;5112893;28;20367;-75
2022/11/04 08:23:44;;;;;;;1999.90;999.90;;;;;;;12.37;100.00;96713.56;5112982;28;20035;-76
2022/11/04 08:26:15;;;;;;;1999.90;999.90;;;;;;;12.34;100.00;96711.50;5113273;28;20023;-75
2022/11/04 08:28:40;;;;;;;1999.90;999.90;;;;;;;12.33;100.00;96718.13;5113173;28;20039;-75
2022/11/04 08:31:07;;;;;;;1999.90;999.90;;;;;;;12.30;100.00;96718.78;5113210;28;20037;-75
2022/11/04 08:33:34;;;;;;;1999.90;999.90;;;;;;;12.38;100.00;96709.66;5112947;28;20032;-74
2022/11/04 08:36:06;;;;;;;1999.90;999.90;;;;;;;12.44;100.00;96708.31;5112889;28;20030;-74
2022/11/04 08:38:33;;;;;;;1999.90;999.90;;;;;;;12.46;100.00;96695.09;5112602;28;20519;-75
2022/11/04 08:41:00;;;;;;;1999.90;999.90;;;;;;;12.49;100.00;96690.88;5112902;28;20122;-74
2022/11/04 08:43:25;;;;;;;1999.90;999.90;;;;;;;12.57;100.00;96688.03;5112736;28;20546;-75
2022/11/04 08:45:51;;;;;;;1999.90;999.90;;;;;;;12.54;100.00;96680.47;5112802;28;20032;-75
2022/11/04 08:48:17;;;;;;;1999.90;999.90;;;;;;;12.55;100.00;96692.25;5112464;28;20019;-74
2022/11/04 08:50:42;;;;;;;1999.90;999.90;;;;;;;12.56;100.00;96694.63;5112447;28;20031;-74
2022/11/04 08:53:08;;;;;;;1999.90;999.90;;;;;;;12.64;100.00;96688.28;5112749;28;20055;-73
2022/11/04 08:55:34;;;;;;;1999.90;999.90;;;;;;;12.63;100.00;96672.13;5112713;28;20029;-74
2022/11/04 08:58:00;;;;;;;1999.90;999.90;;;;;;;12.54;100.00;96674.19;5112745;28;20476;-75
2022/11/04 09:00:26;;;;;;;1999.90;999.90;;;;;;;12.52;100.00;96687.44;5112213;28;20035;-74
2022/11/04 09:02:51;;;;;;;1999.90;999.90;;;;;;;12.62;100.00;96685.06;5112359;28;20506;-75
2022/11/04 09:05:17;;;;;;;1999.90;999.90;;;;;;;12.73;100.00;96678.00;5112247;28;20496;-75
2022/11/04 09:07:43;;;;;;;1999.90;999.90;;;;;;;12.68;100.00;96672.75;5112105;28;20039;-74
2022/11/04 09:10:09;;;;;;;1999.90;999.90;;;;;;;12.67;100.00;96681.28;5112232;28;20028;-75
2022/11/04 09:12:35;;;;;;;1999.90;999.90;;;;;;;12.74;100.00;96682.34;5112262;28;20031;-75
2022/11/04 09:15:01;;;;;;;1999.90;999.90;;;;;;;12.85;100.00;96680.75;5103352;28;20376;-72
2022/11/04 09:17:26;;;;;;;1999.90;999.90;;;;;;;12.84;100.00;96676.41;5104890;28;20023;-74
2022/11/04 09:19:51;;;;;;;1999.90;999.90;;;;;;;12.98;100.00;96676.09;5100961;28;20068;-74
2022/11/04 09:22:17;;;;;;;1999.90;999.90;;;;;;;12.96;100.00;96674.81;5102991;28;20151;-75
2022/11/04 09:24:43;;;;;;;1999.90;999.90;;;;;;;12.92;100.00;96654.69;5105731;28;20381;-74
2022/11/04 09:27:08;;;;;;;1999.90;999.90;;;;;;;13.01;100.00;96664.41;5105397;28;20047;-74
2022/11/04 09:29:35;;;;;;;1999.90;999.90;;;;;;;13.02;100.00;96646.00;5100680;28;20058;-75
2022/11/04 09:32:01;;;;;;;1999.90;999.90;;;;;;;13.06;100.00;96660.66;5102742;28;20449;-73
2022/11/04 09:34:26;;;;;;;1999.90;999.90;;;;;;;13.06;100.00;96655.16;5101985;28;20032;-73
2022/11/04 09:36:55;;;;;;;1999.90;999.90;;;;;;;13.14;100.00;96646.84;5102072;28;20088;-73
2022/11/04 09:39:22;;;;;;;1999.90;999.90;;;;;;;13.21;100.00;96643.53;5102980;28;20078;-87
2022/11/04 09:42:12;;;;;;;1999.90;999.90;;;;;;;13.14;100.00;96626.81;5114161;28;20512;-81
2022/11/04 09:44:57;;;;;;;1999.90;999.90;;;;;;;13.14;100.00;96621.31;5113031;28;20027;-87
2022/11/04 09:47:24;;;;;;;1999.90;999.90;;;;;;;13.11;100.00;96622.81;5115894;28;20016;-85
2022/11/04 09:49:56;;;;;;;1999.90;999.90;;;;;;;13.23;100.00;96611.00;5127449;28;20049;-83
2022/11/04 09:52:28;;;;;;;1999.90;999.90;;;;;;;13.40;100.00;96606.06;5120779;28;20049;-80
2022/11/04 09:55:00;;;;;;;1999.90;999.90;;;;;;;13.47;100.00;96602.72;5108874;28;20054;-85
2022/11/04 09:57:26;;;;;;;1999.90;999.90;;;;;;;13.60;100.00;96587.81;5115505;28;20120;-86
2022/11/04 09:59:53;;;;;;;1999.90;999.90;;;;;;;13.81;100.00;96569.16;5116304;28;20029;-87
2022/11/04 10:02:41;;;;;;;1999.90;999.90;;;;;;;14.14;100.00;96571.66;5116246;28;20020;-88
2022/11/04 10:05:20;;;;;;;1999.90;999.90;;;;;;;14.17;100.00;96572.91;5102338;28;20038;-84
2022/11/04 10:08:16;;;;;;;1999.90;999.90;;;;;;;14.03;100.00;96558.78;5123733;28;20027;-84
2022/11/04 10:10:57;;;;;;;1999.90;999.90;;;;;;;13.78;100.00;96542.38;5115314;28;20122;-88
2022/11/04 10:13:56;;;;;;;1999.90;999.90;;;;;;;13.65;100.00;96532.63;5122381;28;20036;-81
2022/11/04 10:16:42;;;;;;;1999.90;999.90;;;;;;;13.59;100.00;96525.78;5110114;28;20039;-83
2022/11/04 10:19:18;;;;;;;1999.90;999.90;;;;;;;13.38;100.00;96517.72;5123784;28;20035;-88
2022/11/04 10:22:02;;;;;;;;;;;;;;;13.56;100.00;96511.94;5112463;28;20081;-86
2022/11/04 10:24:38;;;;;;;1999.90;999.90;;;;;;;13.54;100.00;96495.78;5117618;28;19912;-89
2022/11/04 10:27:11;;;;;;;1999.90;999.90;;;;;;;13.49;100.00;96495.25;5122448;28;20079;-88
2022/11/04 10:29:42;;;;;;;1999.90;999.90;;;;;;;13.54;100.00;96489.50;5099258;28;20059;-85
2022/11/04 10:32:35;;;;;;;1999.90;999.90;;;;;;;13.52;100.00;96505.53;5117590;28;20031;-85
2022/11/04 10:35:17;;;;;;;1999.90;999.90;;;;;;;13.55;100.00;96491.91;5121303;28;20011;-84
2022/11/04 10:37:43;;;;;;;1999.90;999.90;;;;;;;13.49;100.00;96509.78;5120700;28;20044;-83
2022/11/04 10:40:23;;;;;;;1999.90;999.90;;;;;;;13.61;100.00;96506.97;5116266;28;20030;-81
2022/11/04 10:42:50;;;;;;;1999.90;999.90;;;;;;;13.72;100.00;96501.78;5107489;28;20042;-81
2022/11/04 10:45:19;;;;;;;1999.90;999.90;;;;;;;13.67;100.00;96505.59;5113482;28;20081;-82
2022/11/04 10:47:59;;;;;;;1999.90;999.90;;;;;;;13.63;100.00;96514.88;5112259;28;20449;-87
2022/11/04 10:50:33;;;;;;;1999.90;999.90;;;;;;;13.60;100.00;96512.81;5110050;28;20031;-84
2022/11/04 10:53:09;;;;;;;1999.90;999.90;;;;;;;13.63;100.00;96514.88;5115046;28;20036;-83
2022/11/04 10:55:40;;;;;;;1999.90;999.90;;;;;;;13.69;100.00;96510.75;5110636;28;20082;-87
2022/11/04 10:58:16;;;;;;;1999.90;999.90;;;;;;;13.67;100.00;96513.81;5112135;28;20032;-81
2022/11/04 11:00:42;;;;;;;1999.90;999.90;;;;;;;13.69;100.00;96506.03;5114409;28;20020;-86
2022/11/04 11:03:30;;;;;;;1999.90;999.90;;;;;;;13.70;100.00;96502.13;5116981;28;20035;-84
2022/11/04 11:06:18;;;;;;;1999.90;999.90;;;;;;;13.65;100.00;96515.34;5109461;28;20019;-86
2022/11/04 11:08:46;;;;;;;1999.90;999.90;;;;;;;13.70;100.00;96513.13;5121504;28;20396;-83
2022/11/04 11:11:14;;;;;;;1999.90;999.90;;;;;;;13.82;100.00;96521.31;5121330;28;20092;-86
2022/11/04 11:13:42;;;;;;;1999.90;999.90;;;;;;;13.92;100.00;96515.31;5115218;28;20476;-82
2022/11/04 11:16:17;;;;;;;1999.90;999.90;;;;;;;13.85;100.00;96506.84;5096452;28;20396;-84
2022/11/04 11:18:42;;;;;;;1999.90;999.90;;;;;;;13.89;100.00;96507.75;5118640;28;20020;-87
2022/11/04 11:21:12;;;;;;;1999.90;999.90;;;;;;;13.99;100.00;96508.38;5119779;28;20046;-85
2022/11/04 11:23:46;;;;;;;1999.90;999.90;;;;;;;14.07;100.00;96507.41;5115466;28;20024;-83
2022/11/04 11:26:16;;;;;;;1999.90;999.90;;;;;;;14.07;100.00;96501.91;5120544;28;20039;-82
2022/11/04 11:28:48;;;;;;;1999.90;999.90;;;;;;;14.08;100.00;96506.28;5118045;28;20031;-85
2022/11/04 11:31:23;;;;;;;1999.90;999.90;;;;;;;14.05;100.00;96512.47;5119670;28;20063;-83